sensor_id;sensor_type;location;lat;lon;timestamp;P1;durP1;ratioP1;P2;durP2;ratioP2
36789;SDS011;22740;52.182;8.780;2023-04-03T00:00:25;4.72;;;1.25;;
36789;SDS011;22740;52.182;8.780;2023-04-03T00:06:26;2.38;;;1.20;;
36789;SDS011;22740;52.182;8.780;2023-04-03T00:12:28;3.97;;;1.30;;
36789;SDS011;22740;52.182;8.780;2023-04-03T00:18:30;5.25;;;1.35;;
36789;SDS011;22740;52.182;8.780;2023-04-03T00:24:32;4.65;;;1.13;;
36789;SDS011;22740;52.182;8.780;2023-04-03T00:30:34;3.83;;;1.13;;
36789;SDS011;22740;52.182;8.780;2023-04-03T00:36:36;4.80;;;1.30;;
36789;SDS011;22740;52.182;8.780;2023-04-03T00:42:41;7.13;;;1.33;;
36789;SDS011;22740;52.182;8.780;2023-04-03T00:48:44;5.45;;;0.90;;
36789;SDS011;22740;52.182;8.780;2023-04-03T00:54:47;4.85;;;0.95;;
36789;SDS011;22740;52.182;8.780;2023-04-03T01:00:53;4.70;;;1.05;;
36789;SDS011;22740;52.182;8.780;2023-04-03T01:07:01;4.55;;;1.08;;
36789;SDS011;22740;52.182;8.780;2023-04-03T01:19:44;5.78;;;1.27;;
36789;SDS011;22740;52.182;8.780;2023-04-03T01:25:55;6.03;;;1.27;;
36789;SDS011;22740;52.182;8.780;2023-04-03T01:31:59;5.10;;;1.27;;
36789;SDS011;22740;52.182;8.780;2023-04-03T01:38:02;3.65;;;1.02;;
36789;SDS011;22740;52.182;8.780;2023-04-03T01:44:04;5.57;;;1.20;;
36789;SDS011;22740;52.182;8.780;2023-04-03T01:50:06;3.85;;;1.20;;
36789;SDS011;22740;52.182;8.780;2023-04-03T01:56:08;6.05;;;1.45;;
36789;SDS011;22740;52.182;8.780;2023-04-03T02:02:10;5.28;;;1.25;;
36789;SDS011;22740;52.182;8.780;2023-04-03T02:08:13;5.20;;;1.20;;
36789;SDS011;22740;52.182;8.780;2023-04-03T02:14:15;4.47;;;1.20;;
36789;SDS011;22740;52.182;8.780;2023-04-03T02:20:17;4.47;;;1.42;;
36789;SDS011;22740;52.182;8.780;2023-04-03T02:26:19;6.13;;;1.00;;
36789;SDS011;22740;52.182;8.780;2023-04-03T02:32:21;5.95;;;2.00;;
36789;SDS011;22740;52.182;8.780;2023-04-03T02:38:22;7.00;;;1.50;;
36789;SDS011;22740;52.182;8.780;2023-04-03T02:44:24;3.05;;;1.23;;
36789;SDS011;22740;52.182;8.780;2023-04-03T02:50:26;7.20;;;1.40;;
36789;SDS011;22740;52.182;8.780;2023-04-03T02:56:28;3.55;;;1.10;;
36789;SDS011;22740;52.182;8.780;2023-04-03T03:02:30;9.52;;;1.73;;
36789;SDS011;22740;52.182;8.780;2023-04-03T03:08:32;5.03;;;2.42;;
36789;SDS011;22740;52.182;8.780;2023-04-03T03:14:34;5.03;;;1.23;;
36789;SDS011;22740;52.182;8.780;2023-04-03T03:20:36;4.22;;;1.10;;
36789;SDS011;22740;52.182;8.780;2023-04-03T03:26:38;5.57;;;1.30;;
36789;SDS011;22740;52.182;8.780;2023-04-03T03:32:40;4.72;;;1.35;;
36789;SDS011;22740;52.182;8.780;2023-04-03T03:38:42;5.85;;;1.23;;
36789;SDS011;22740;52.182;8.780;2023-04-03T03:44:44;4.22;;;1.33;;
36789;SDS011;22740;52.182;8.780;2023-04-03T03:50:46;8.00;;;1.52;;
36789;SDS011;22740;52.182;8.780;2023-04-03T03:56:48;4.25;;;1.73;;
36789;SDS011;22740;52.182;8.780;2023-04-03T04:02:50;5.63;;;1.40;;
36789;SDS011;22740;52.182;8.780;2023-04-03T04:08:52;9.35;;;1.42;;
36789;SDS011;22740;52.182;8.780;2023-04-03T04:14:53;8.73;;;1.98;;
36789;SDS011;22740;52.182;8.780;2023-04-03T04:20:55;6.97;;;1.63;;
36789;SDS011;22740;52.182;8.780;2023-04-03T04:26:57;6.60;;;1.35;;
36789;SDS011;22740;52.182;8.780;2023-04-03T04:32:59;4.35;;;1.38;;
36789;SDS011;22740;52.182;8.780;2023-04-03T04:39:02;5.03;;;1.50;;
36789;SDS011;22740;52.182;8.780;2023-04-03T04:45:04;4.82;;;1.13;;
36789;SDS011;22740;52.182;8.780;2023-04-03T04:51:06;3.97;;;1.40;;
36789;SDS011;22740;52.182;8.780;2023-04-03T04:57:08;5.65;;;1.38;;
36789;SDS011;22740;52.182;8.780;2023-04-03T05:03:10;4.22;;;1.55;;
36789;SDS011;22740;52.182;8.780;2023-04-03T05:09:12;6.55;;;1.17;;
36789;SDS011;22740;52.182;8.780;2023-04-03T05:15:14;4.63;;;1.40;;
36789;SDS011;22740;52.182;8.780;2023-04-03T05:21:16;5.28;;;1.65;;
36789;SDS011;22740;52.182;8.780;2023-04-03T05:27:19;9.85;;;1.58;;
36789;SDS011;22740;52.182;8.780;2023-04-03T05:33:21;7.65;;;1.90;;
36789;SDS011;22740;52.182;8.780;2023-04-03T05:39:23;4.65;;;1.50;;
36789;SDS011;22740;52.182;8.780;2023-04-03T05:45:26;9.02;;;1.85;;
36789;SDS011;22740;52.182;8.780;2023-04-03T05:51:29;6.25;;;2.17;;
36789;SDS011;22740;52.182;8.780;2023-04-03T05:57:34;5.65;;;1.38;;
36789;SDS011;22740;52.182;8.780;2023-04-03T06:03:36;4.85;;;1.67;;
36789;SDS011;22740;52.182;8.780;2023-04-03T06:09:40;5.40;;;1.50;;
36789;SDS011;22740;52.182;8.780;2023-04-03T06:15:43;5.40;;;1.40;;
36789;SDS011;22740;52.182;8.780;2023-04-03T06:21:45;8.30;;;2.58;;
36789;SDS011;22740;52.182;8.780;2023-04-03T06:27:48;5.68;;;1.52;;
36789;SDS011;22740;52.182;8.780;2023-04-03T06:33:50;6.07;;;1.35;;
36789;SDS011;22740;52.182;8.780;2023-04-03T06:39:52;3.17;;;1.25;;
36789;SDS011;22740;52.182;8.780;2023-04-03T06:45:53;4.70;;;1.63;;
36789;SDS011;22740;52.182;8.780;2023-04-03T06:51:56;5.63;;;1.50;;
36789;SDS011;22740;52.182;8.780;2023-04-03T06:57:59;6.25;;;1.55;;
36789;SDS011;22740;52.182;8.780;2023-04-03T07:04:01;8.73;;;1.50;;
36789;SDS011;22740;52.182;8.780;2023-04-03T07:10:04;7.25;;;1.42;;
36789;SDS011;22740;52.182;8.780;2023-04-03T07:16:07;6.43;;;1.40;;
36789;SDS011;22740;52.182;8.780;2023-04-03T07:22:10;5.57;;;1.38;;
36789;SDS011;22740;52.182;8.780;2023-04-03T07:28:12;6.95;;;1.40;;
36789;SDS011;22740;52.182;8.780;2023-04-03T07:34:15;7.03;;;1.50;;
36789;SDS011;22740;52.182;8.780;2023-04-03T07:40:17;7.07;;;1.67;;
36789;SDS011;22740;52.182;8.780;2023-04-03T07:46:20;5.43;;;1.20;;
36789;SDS011;22740;52.182;8.780;2023-04-03T07:52:23;5.65;;;1.48;;
36789;SDS011;22740;52.182;8.780;2023-04-03T07:58:25;5.07;;;1.38;;
36789;SDS011;22740;52.182;8.780;2023-04-03T08:04:27;3.28;;;1.02;;
36789;SDS011;22740;52.182;8.780;2023-04-03T08:10:30;4.60;;;1.52;;
36789;SDS011;22740;52.182;8.780;2023-04-03T08:16:32;3.78;;;1.02;;
36789;SDS011;22740;52.182;8.780;2023-04-03T08:22:34;5.00;;;1.13;;
36789;SDS011;22740;52.182;8.780;2023-04-03T08:28:36;5.97;;;1.05;;
36789;SDS011;22740;52.182;8.780;2023-04-03T08:34:39;3.83;;;0.80;;
36789;SDS011;22740;52.182;8.780;2023-04-03T08:40:45;3.08;;;0.82;;
36789;SDS011;22740;52.182;8.780;2023-04-03T08:53:12;3.58;;;1.05;;
36789;SDS011;22740;52.182;8.780;2023-04-03T08:59:29;3.78;;;1.10;;
36789;SDS011;22740;52.182;8.780;2023-04-03T09:05:39;6.60;;;0.95;;
36789;SDS011;22740;52.182;8.780;2023-04-03T09:12:12;3.42;;;0.90;;
36789;SDS011;22740;52.182;8.780;2023-04-03T09:18:20;4.43;;;0.90;;
36789;SDS011;22740;52.182;8.780;2023-04-03T09:24:26;7.97;;;0.90;;
36789;SDS011;22740;52.182;8.780;2023-04-03T09:30:29;5.75;;;1.10;;
36789;SDS011;22740;52.182;8.780;2023-04-03T09:37:04;4.97;;;1.02;;
36789;SDS011;22740;52.182;8.780;2023-04-03T09:43:02;7.22;;;1.27;;
36789;SDS011;22740;52.182;8.780;2023-04-03T09:49:21;6.32;;;1.05;;
36789;SDS011;22740;52.182;8.780;2023-04-03T09:55:24;4.00;;;0.77;;
36789;SDS011;22740;52.182;8.780;2023-04-03T10:01:31;5.85;;;1.20;;
36789;SDS011;22740;52.182;8.780;2023-04-03T10:07:37;5.57;;;1.20;;
36789;SDS011;22740;52.182;8.780;2023-04-03T10:13:54;4.63;;;1.00;;
36789;SDS011;22740;52.182;8.780;2023-04-03T10:20:00;2.35;;;0.90;;
36789;SDS011;22740;52.182;8.780;2023-04-03T10:26:29;3.58;;;1.25;;
36789;SDS011;22740;52.182;8.780;2023-04-03T10:39:15;5.00;;;1.00;;
36789;SDS011;22740;52.182;8.780;2023-04-03T10:58:02;4.30;;;1.00;;
36789;SDS011;22740;52.182;8.780;2023-04-03T11:04:05;4.17;;;1.10;;
36789;SDS011;22740;52.182;8.780;2023-04-03T11:10:10;3.72;;;0.93;;
36789;SDS011;22740;52.182;8.780;2023-04-03T11:16:24;2.20;;;0.70;;
36789;SDS011;22740;52.182;8.780;2023-04-03T11:29:01;3.03;;;0.80;;
36789;SDS011;22740;52.182;8.780;2023-04-03T11:35:08;2.03;;;0.60;;
36789;SDS011;22740;52.182;8.780;2023-04-03T11:41:11;3.63;;;0.70;;
36789;SDS011;22740;52.182;8.780;2023-04-03T12:01:02;3.50;;;0.75;;
36789;SDS011;22740;52.182;8.780;2023-04-03T12:07:12;5.35;;;0.63;;
36789;SDS011;22740;52.182;8.780;2023-04-03T12:13:17;2.50;;;0.70;;
36789;SDS011;22740;52.182;8.780;2023-04-03T12:25:48;1.77;;;0.80;;
36789;SDS011;22740;52.182;8.780;2023-04-03T12:50:22;3.10;;;0.80;;
36789;SDS011;22740;52.182;8.780;2023-04-03T12:56:27;4.22;;;0.75;;
36789;SDS011;22740;52.182;8.780;2023-04-03T13:02:34;3.30;;;0.88;;
36789;SDS011;22740;52.182;8.780;2023-04-03T13:08:36;3.40;;;0.68;;
36789;SDS011;22740;52.182;8.780;2023-04-03T13:14:38;3.20;;;0.85;;
36789;SDS011;22740;52.182;8.780;2023-04-03T13:20:42;4.03;;;0.82;;
36789;SDS011;22740;52.182;8.780;2023-04-03T13:26:44;4.82;;;0.95;;
36789;SDS011;22740;52.182;8.780;2023-04-03T13:32:46;2.90;;;0.80;;
36789;SDS011;22740;52.182;8.780;2023-04-03T13:38:59;1.85;;;0.85;;
36789;SDS011;22740;52.182;8.780;2023-04-03T13:45:23;2.40;;;0.70;;
36789;SDS011;22740;52.182;8.780;2023-04-03T13:51:29;4.53;;;1.17;;
36789;SDS011;22740;52.182;8.780;2023-04-03T13:57:31;4.90;;;0.88;;
36789;SDS011;22740;52.182;8.780;2023-04-03T14:03:39;3.42;;;0.80;;
36789;SDS011;22740;52.182;8.780;2023-04-03T14:09:49;3.22;;;0.80;;
36789;SDS011;22740;52.182;8.780;2023-04-03T14:15:51;2.13;;;0.60;;
36789;SDS011;22740;52.182;8.780;2023-04-03T14:21:56;3.22;;;1.08;;
36789;SDS011;22740;52.182;8.780;2023-04-03T14:27:59;5.32;;;1.15;;
36789;SDS011;22740;52.182;8.780;2023-04-03T14:34:01;3.67;;;0.95;;
36789;SDS011;22740;52.182;8.780;2023-04-03T14:40:04;2.58;;;0.93;;
36789;SDS011;22740;52.182;8.780;2023-04-03T14:46:14;3.40;;;1.43;;
36789;SDS011;22740;52.182;8.780;2023-04-03T14:52:43;4.85;;;1.00;;
36789;SDS011;22740;52.182;8.780;2023-04-03T14:58:46;3.28;;;0.77;;
36789;SDS011;22740;52.182;8.780;2023-04-03T15:04:51;2.85;;;0.80;;
36789;SDS011;22740;52.182;8.780;2023-04-03T15:10:54;3.38;;;1.08;;
36789;SDS011;22740;52.182;8.780;2023-04-03T15:16:57;2.85;;;0.73;;
36789;SDS011;22740;52.182;8.780;2023-04-03T15:22:59;3.80;;;0.80;;
36789;SDS011;22740;52.182;8.780;2023-04-03T15:29:03;2.97;;;0.90;;
36789;SDS011;22740;52.182;8.780;2023-04-03T15:35:06;3.00;;;1.00;;
36789;SDS011;22740;52.182;8.780;2023-04-03T15:41:08;1.65;;;0.68;;
36789;SDS011;22740;52.182;8.780;2023-04-03T15:47:10;3.00;;;0.88;;
36789;SDS011;22740;52.182;8.780;2023-04-03T15:53:11;2.40;;;0.73;;
36789;SDS011;22740;52.182;8.780;2023-04-03T15:59:13;1.50;;;0.70;;
36789;SDS011;22740;52.182;8.780;2023-04-03T16:05:15;1.83;;;0.70;;
36789;SDS011;22740;52.182;8.780;2023-04-03T16:11:18;4.30;;;1.00;;
36789;SDS011;22740;52.182;8.780;2023-04-03T16:17:20;3.40;;;0.90;;
36789;SDS011;22740;52.182;8.780;2023-04-03T16:23:22;3.40;;;0.80;;
36789;SDS011;22740;52.182;8.780;2023-04-03T16:29:24;3.15;;;0.90;;
36789;SDS011;22740;52.182;8.780;2023-04-03T16:35:26;2.17;;;0.60;;
36789;SDS011;22740;52.182;8.780;2023-04-03T16:41:28;4.80;;;1.13;;
36789;SDS011;22740;52.182;8.780;2023-04-03T16:47:30;2.65;;;0.80;;
36789;SDS011;22740;52.182;8.780;2023-04-03T16:53:32;4.32;;;0.60;;
36789;SDS011;22740;52.182;8.780;2023-04-03T16:59:34;4.07;;;0.80;;
36789;SDS011;22740;52.182;8.780;2023-04-03T17:05:35;5.07;;;0.95;;
36789;SDS011;22740;52.182;8.780;2023-04-03T17:11:38;2.80;;;0.80;;
36789;SDS011;22740;52.182;8.780;2023-04-03T17:17:40;4.00;;;0.90;;
36789;SDS011;22740;52.182;8.780;2023-04-03T17:23:42;3.95;;;0.80;;
36789;SDS011;22740;52.182;8.780;2023-04-03T17:29:47;3.65;;;0.90;;
36789;SDS011;22740;52.182;8.780;2023-04-03T17:35:49;3.00;;;0.80;;
36789;SDS011;22740;52.182;8.780;2023-04-03T17:41:51;4.75;;;0.95;;
36789;SDS011;22740;52.182;8.780;2023-04-03T17:47:55;3.13;;;0.80;;
36789;SDS011;22740;52.182;8.780;2023-04-03T17:53:57;3.78;;;0.98;;
36789;SDS011;22740;52.182;8.780;2023-04-03T17:59:59;5.40;;;1.42;;
36789;SDS011;22740;52.182;8.780;2023-04-03T18:06:04;3.45;;;1.08;;
36789;SDS011;22740;52.182;8.780;2023-04-03T18:12:08;4.07;;;1.10;;
36789;SDS011;22740;52.182;8.780;2023-04-03T18:18:10;4.20;;;1.17;;
36789;SDS011;22740;52.182;8.780;2023-04-03T18:24:13;3.20;;;1.02;;
36789;SDS011;22740;52.182;8.780;2023-04-03T18:30:17;3.63;;;0.95;;
36789;SDS011;22740;52.182;8.780;2023-04-03T18:36:19;4.95;;;1.10;;
36789;SDS011;22740;52.182;8.780;2023-04-03T18:42:22;4.35;;;1.45;;
36789;SDS011;22740;52.182;8.780;2023-04-03T18:48:26;3.90;;;1.10;;
36789;SDS011;22740;52.182;8.780;2023-04-03T18:54:30;3.43;;;1.30;;
36789;SDS011;22740;52.182;8.780;2023-04-03T19:00:32;8.25;;;1.90;;
36789;SDS011;22740;52.182;8.780;2023-04-03T19:06:34;3.13;;;1.27;;
36789;SDS011;22740;52.182;8.780;2023-04-03T19:12:37;3.25;;;1.35;;
36789;SDS011;22740;52.182;8.780;2023-04-03T19:18:39;5.10;;;1.50;;
36789;SDS011;22740;52.182;8.780;2023-04-03T19:24:41;5.15;;;1.55;;
36789;SDS011;22740;52.182;8.780;2023-04-03T19:30:43;9.43;;;2.70;;
36789;SDS011;22740;52.182;8.780;2023-04-03T19:36:48;6.75;;;1.52;;
36789;SDS011;22740;52.182;8.780;2023-04-03T19:42:52;4.10;;;1.88;;
36789;SDS011;22740;52.182;8.780;2023-04-03T19:48:54;4.47;;;1.85;;
36789;SDS011;22740;52.182;8.780;2023-04-03T19:54:56;5.05;;;1.70;;
36789;SDS011;22740;52.182;8.780;2023-04-03T20:00:58;6.53;;;1.95;;
36789;SDS011;22740;52.182;8.780;2023-04-03T20:07:00;3.20;;;1.15;;
36789;SDS011;22740;52.182;8.780;2023-04-03T20:13:03;3.80;;;1.33;;
36789;SDS011;22740;52.182;8.780;2023-04-03T20:19:08;5.80;;;1.33;;
36789;SDS011;22740;52.182;8.780;2023-04-03T20:25:10;4.63;;;1.15;;
36789;SDS011;22740;52.182;8.780;2023-04-03T20:31:18;3.80;;;1.20;;
36789;SDS011;22740;52.182;8.780;2023-04-03T20:37:21;3.87;;;1.20;;
36789;SDS011;22740;52.182;8.780;2023-04-03T20:43:24;3.65;;;1.30;;
36789;SDS011;22740;52.182;8.780;2023-04-03T20:49:26;5.32;;;1.30;;
36789;SDS011;22740;52.182;8.780;2023-04-03T20:55:28;4.35;;;1.40;;
36789;SDS011;22740;52.182;8.780;2023-04-03T21:01:30;5.10;;;1.30;;
36789;SDS011;22740;52.182;8.780;2023-04-03T21:20:53;5.50;;;1.40;;
36789;SDS011;22740;52.182;8.780;2023-04-03T21:26:56;7.03;;;1.75;;
36789;SDS011;22740;52.182;8.780;2023-04-03T21:32:58;4.88;;;1.95;;
36789;SDS011;22740;52.182;8.780;2023-04-03T21:38:59;3.05;;;1.30;;
36789;SDS011;22740;52.182;8.780;2023-04-03T21:45:02;4.70;;;1.42;;
36789;SDS011;22740;52.182;8.780;2023-04-03T21:51:04;7.25;;;1.83;;
36789;SDS011;22740;52.182;8.780;2023-04-03T21:57:07;3.80;;;1.40;;
36789;SDS011;22740;52.182;8.780;2023-04-03T22:09:18;5.03;;;1.80;;
36789;SDS011;22740;52.182;8.780;2023-04-03T22:15:20;6.10;;;1.63;;
36789;SDS011;22740;52.182;8.780;2023-04-03T22:21:22;4.40;;;1.60;;
36789;SDS011;22740;52.182;8.780;2023-04-03T22:27:24;3.17;;;1.48;;
36789;SDS011;22740;52.182;8.780;2023-04-03T22:33:26;4.22;;;1.33;;
36789;SDS011;22740;52.182;8.780;2023-04-03T22:39:28;5.40;;;1.70;;
36789;SDS011;22740;52.182;8.780;2023-04-03T22:45:29;5.60;;;1.50;;
36789;SDS011;22740;52.182;8.780;2023-04-03T22:51:31;4.68;;;1.70;;
36789;SDS011;22740;52.182;8.780;2023-04-03T22:57:33;5.03;;;1.98;;
36789;SDS011;22740;52.182;8.780;2023-04-03T23:03:35;5.22;;;1.67;;
36789;SDS011;22740;52.182;8.780;2023-04-03T23:09:38;6.28;;;1.88;;
36789;SDS011;22740;52.182;8.780;2023-04-03T23:15:40;5.78;;;1.50;;
36789;SDS011;22740;52.182;8.780;2023-04-03T23:21:42;3.38;;;1.40;;
36789;SDS011;22740;52.182;8.780;2023-04-03T23:27:50;3.30;;;1.13;;
36789;SDS011;22740;52.182;8.780;2023-04-03T23:33:55;6.40;;;1.63;;
36789;SDS011;22740;52.182;8.780;2023-04-03T23:39:56;2.65;;;1.13;;
36789;SDS011;22740;52.182;8.780;2023-04-03T23:46:00;4.43;;;1.45;;
36789;SDS011;22740;52.182;8.780;2023-04-03T23:52:02;5.65;;;1.40;;
36789;SDS011;22740;52.182;8.780;2023-04-03T23:58:03;3.85;;;1.50;;
